sensor_id;sensor_type;location;lat;lon;timestamp;pressure;altitude;pressure_sealevel;temperature
24201;BMP280;2801;50.972;7.856;2024-03-17T00:01:03;98325.81;;;3.98
24201;BMP280;2801;50.972;7.856;2024-03-17T00:03:30;98322.59;;;3.91
24201;BMP280;2801;50.972;7.856;2024-03-17T00:05:59;98327.63;;;3.83
24201;BMP280;2801;50.972;7.856;2024-03-17T00:08:25;98321.19;;;3.74
24201;BMP280;2801;50.972;7.856;2024-03-17T00:10:53;98323.53;;;3.65
24201;BMP280;2801;50.972;7.856;2024-03-17T00:13:21;98317.41;;;3.60
24201;BMP280;2801;50.972;7.856;2024-03-17T00:15:50;98318.19;;;3.55
24201;BMP280;2801;50.972;7.856;2024-03-17T00:18:17;98324.25;;;3.51
24201;BMP280;2801;50.972;7.856;2024-03-17T00:20:43;98322.38;;;3.46
24201;BMP280;2801;50.972;7.856;2024-03-17T00:23:10;98309.09;;;3.41
24201;BMP280;2801;50.972;7.856;2024-03-17T00:25:38;98320.69;;;3.35
24201;BMP280;2801;50.972;7.856;2024-03-17T00:28:05;98312.72;;;3.30
24201;BMP280;2801;50.972;7.856;2024-03-17T00:30:31;98305.03;;;3.29
24201;BMP280;2801;50.972;7.856;2024-03-17T00:32:58;98301.56;;;3.23
24201;BMP280;2801;50.972;7.856;2024-03-17T00:35:25;98294.03;;;3.05
24201;BMP280;2801;50.972;7.856;2024-03-17T00:37:52;98302.19;;;2.99
24201;BMP280;2801;50.972;7.856;2024-03-17T00:40:19;98307.19;;;2.95
24201;BMP280;2801;50.972;7.856;2024-03-17T00:42:47;98300.84;;;2.96
24201;BMP280;2801;50.972;7.856;2024-03-17T00:45:13;98298.69;;;2.93
24201;BMP280;2801;50.972;7.856;2024-03-17T00:47:39;98292.28;;;2.84
24201;BMP280;2801;50.972;7.856;2024-03-17T00:50:06;98290.94;;;2.82
24201;BMP280;2801;50.972;7.856;2024-03-17T00:52:34;98288.53;;;2.80
24201;BMP280;2801;50.972;7.856;2024-03-17T00:55:00;98293.75;;;2.70
24201;BMP280;2801;50.972;7.856;2024-03-17T00:57:26;98289.75;;;2.68
24201;BMP280;2801;50.972;7.856;2024-03-17T00:59:52;98289.22;;;2.66
24201;BMP280;2801;50.972;7.856;2024-03-17T01:02:18;98286.81;;;2.64
24201;BMP280;2801;50.972;7.856;2024-03-17T01:04:45;98284.94;;;2.60
24201;BMP280;2801;50.972;7.856;2024-03-17T01:07:11;98288.56;;;2.54
24201;BMP280;2801;50.972;7.856;2024-03-17T01:09:38;98283.81;;;2.51
24201;BMP280;2801;50.972;7.856;2024-03-17T01:12:05;98277.13;;;2.48
24201;BMP280;2801;50.972;7.856;2024-03-17T01:14:31;98272.63;;;2.44
24201;BMP280;2801;50.972;7.856;2024-03-17T01:16:59;98264.13;;;2.42
24201;BMP280;2801;50.972;7.856;2024-03-17T01:19:25;98258.22;;;2.35
24201;BMP280;2801;50.972;7.856;2024-03-17T01:21:52;98257.47;;;2.39
24201;BMP280;2801;50.972;7.856;2024-03-17T01:24:18;98242.56;;;2.28
24201;BMP280;2801;50.972;7.856;2024-03-17T01:26:44;98258.22;;;2.35
24201;BMP280;2801;50.972;7.856;2024-03-17T01:29:11;98259.00;;;2.30
24201;BMP280;2801;50.972;7.856;2024-03-17T01:31:37;98241.72;;;2.23
24201;BMP280;2801;50.972;7.856;2024-03-17T01:34:03;98246.19;;;2.22
24201;BMP280;2801;50.972;7.856;2024-03-17T01:36:29;98248.81;;;2.17
24201;BMP280;2801;50.972;7.856;2024-03-17T01:38:55;98232.09;;;2.12
24201;BMP280;2801;50.972;7.856;2024-03-17T01:41:21;98239.53;;;2.15
24201;BMP280;2801;50.972;7.856;2024-03-17T01:43:47;98235.53;;;2.12
24201;BMP280;2801;50.972;7.856;2024-03-17T01:46:16;98237.63;;;2.10
24201;BMP280;2801;50.972;7.856;2024-03-17T01:48:43;98235.22;;;2.09
24201;BMP280;2801;50.972;7.856;2024-03-17T01:51:11;98241.28;;;2.04
24201;BMP280;2801;50.972;7.856;2024-03-17T01:53:40;98242.28;;;1.98
24201;BMP280;2801;50.972;7.856;2024-03-17T01:56:10;98226.13;;;1.95
24201;BMP280;2801;50.972;7.856;2024-03-17T01:58:36;98232.63;;;1.87
24201;BMP280;2801;50.972;7.856;2024-03-17T02:01:02;98231.00;;;1.81
24201;BMP280;2801;50.972;7.856;2024-03-17T02:03:30;98224.66;;;1.82
24201;BMP280;2801;50.972;7.856;2024-03-17T02:06:00;98221.16;;;1.77
24201;BMP280;2801;50.972;7.856;2024-03-17T02:08:27;98226.44;;;1.77
24201;BMP280;2801;50.972;7.856;2024-03-17T02:10:56;98218.97;;;1.69
24201;BMP280;2801;50.972;7.856;2024-03-17T02:13:22;98218.47;;;1.72
24201;BMP280;2801;50.972;7.856;2024-03-17T02:15:49;98212.88;;;1.68
24201;BMP280;2801;50.972;7.856;2024-03-17T02:18:15;98213.75;;;1.52
24201;BMP280;2801;50.972;7.856;2024-03-17T02:20:41;98201.47;;;1.41
24201;BMP280;2801;50.972;7.856;2024-03-17T02:23:26;98222.59;;;1.41
24201;BMP280;2801;50.972;7.856;2024-03-17T02:25:53;98229.72;;;1.41
24201;BMP280;2801;50.972;7.856;2024-03-17T02:28:19;98231.00;;;1.38
24201;BMP280;2801;50.972;7.856;2024-03-17T02:30:45;98228.38;;;1.38
24201;BMP280;2801;50.972;7.856;2024-03-17T02:33:11;98222.31;;;1.38
24201;BMP280;2801;50.972;7.856;2024-03-17T02:35:37;98229.84;;;1.29
24201;BMP280;2801;50.972;7.856;2024-03-17T02:38:03;98229.28;;;1.27
24201;BMP280;2801;50.972;7.856;2024-03-17T02:40:30;98228.75;;;1.25
24201;BMP280;2801;50.972;7.856;2024-03-17T02:42:56;98230.34;;;1.26
24201;BMP280;2801;50.972;7.856;2024-03-17T02:45:22;98230.50;;;1.20
24201;BMP280;2801;50.972;7.856;2024-03-17T02:47:48;98226.59;;;1.22
24201;BMP280;2801;50.972;7.856;2024-03-17T02:50:16;98222.84;;;1.18
24201;BMP280;2801;50.972;7.856;2024-03-17T02:52:42;98219.19;;;1.24
24201;BMP280;2801;50.972;7.856;2024-03-17T02:55:08;98218.94;;;1.26
24201;BMP280;2801;50.972;7.856;2024-03-17T02:57:34;98219.03;;;1.31
24201;BMP280;2801;50.972;7.856;2024-03-17T03:00:00;98211.59;;;1.28
24201;BMP280;2801;50.972;7.856;2024-03-17T03:02:26;98205.69;;;1.21
24201;BMP280;2801;50.972;7.856;2024-03-17T03:04:52;98214.47;;;1.26
24201;BMP280;2801;50.972;7.856;2024-03-17T03:07:18;98215.84;;;1.29
24201;BMP280;2801;50.972;7.856;2024-03-17T03:09:44;98212.41;;;1.28
24201;BMP280;2801;50.972;7.856;2024-03-17T03:12:10;98218.16;;;1.25
24201;BMP280;2801;50.972;7.856;2024-03-17T03:14:35;98219.75;;;1.26
24201;BMP280;2801;50.972;7.856;2024-03-17T03:17:02;98219.72;;;1.21
24201;BMP280;2801;50.972;7.856;2024-03-17T03:19:29;98218.66;;;1.22
24201;BMP280;2801;50.972;7.856;2024-03-17T03:21:56;98231.25;;;1.15
24201;BMP280;2801;50.972;7.856;2024-03-17T03:24:22;98228.31;;;1.12
24201;BMP280;2801;50.972;7.856;2024-03-17T03:26:48;98230.59;;;1.08
24201;BMP280;2801;50.972;7.856;2024-03-17T03:29:14;98232.47;;;1.08
24201;BMP280;2801;50.972;7.856;2024-03-17T03:31:40;98238.22;;;1.05
24201;BMP280;2801;50.972;7.856;2024-03-17T03:34:07;98226.56;;;1.01
24201;BMP280;2801;50.972;7.856;2024-03-17T03:36:35;98231.03;;;1.00
24201;BMP280;2801;50.972;7.856;2024-03-17T03:39:03;98224.94;;;1.00
24201;BMP280;2801;50.972;7.856;2024-03-17T03:41:31;98218.50;;;0.91
24201;BMP280;2801;50.972;7.856;2024-03-17T03:43:59;98228.56;;;0.94
24201;BMP280;2801;50.972;7.856;2024-03-17T03:46:25;98220.59;;;0.89
24201;BMP280;2801;50.972;7.856;2024-03-17T03:48:52;98227.63;;;0.83
24201;BMP280;2801;50.972;7.856;2024-03-17T03:51:18;98228.19;;;0.85
24201;BMP280;2801;50.972;7.856;2024-03-17T03:53:44;98219.31;;;0.75
24201;BMP280;2801;50.972;7.856;2024-03-17T03:56:10;98220.03;;;0.70
24201;BMP280;2801;50.972;7.856;2024-03-17T03:58:38;98220.03;;;0.70
24201;BMP280;2801;50.972;7.856;2024-03-17T04:01:09;98216.09;;;0.73
24201;BMP280;2801;50.972;7.856;2024-03-17T04:03:41;98225.22;;;0.82
24201;BMP280;2801;50.972;7.856;2024-03-17T04:06:10;98226.81;;;0.83
24201;BMP280;2801;50.972;7.856;2024-03-17T04:08:39;98227.94;;;0.87
24201;BMP280;2801;50.972;7.856;2024-03-17T04:11:09;98231.63;;;0.86
24201;BMP280;2801;50.972;7.856;2024-03-17T04:13:35;98229.47;;;0.83
24201;BMP280;2801;50.972;7.856;2024-03-17T04:16:05;98233.63;;;0.79
24201;BMP280;2801;50.972;7.856;2024-03-17T04:18:32;98229.69;;;0.81
24201;BMP280;2801;50.972;7.856;2024-03-17T04:21:05;98225.94;;;0.77
24201;BMP280;2801;50.972;7.856;2024-03-17T04:23:33;98227.25;;;0.75
24201;BMP280;2801;50.972;7.856;2024-03-17T04:26:01;98213.66;;;0.66
24201;BMP280;2801;50.972;7.856;2024-03-17T04:28:27;98219.50;;;0.68
24201;BMP280;2801;50.972;7.856;2024-03-17T04:31:03;98221.16;;;0.74
24201;BMP280;2801;50.972;7.856;2024-03-17T04:33:31;98225.00;;;0.67
24201;BMP280;2801;50.972;7.856;2024-03-17T04:35:57;98224.19;;;0.66
24201;BMP280;2801;50.972;7.856;2024-03-17T04:38:23;98231.88;;;0.68
24201;BMP280;2801;50.972;7.856;2024-03-17T04:40:50;98231.06;;;0.51
24201;BMP280;2801;50.972;7.856;2024-03-17T04:43:17;98228.84;;;0.59
24201;BMP280;2801;50.972;7.856;2024-03-17T04:45:43;98228.84;;;0.59
24201;BMP280;2801;50.972;7.856;2024-03-17T04:48:10;98224.69;;;0.63
24201;BMP280;2801;50.972;7.856;2024-03-17T04:50:36;98221.63;;;0.55
24201;BMP280;2801;50.972;7.856;2024-03-17T04:53:02;98228.44;;;0.51
24201;BMP280;2801;50.972;7.856;2024-03-17T04:55:29;98218.22;;;0.54
24201;BMP280;2801;50.972;7.856;2024-03-17T04:57:55;98216.34;;;0.55
24201;BMP280;2801;50.972;7.856;2024-03-17T05:00:21;98216.34;;;0.55
24201;BMP280;2801;50.972;7.856;2024-03-17T05:02:47;98223.56;;;0.59
24201;BMP280;2801;50.972;7.856;2024-03-17T05:05:14;98212.22;;;0.59
24201;BMP280;2801;50.972;7.856;2024-03-17T05:07:40;98218.44;;;0.53
24201;BMP280;2801;50.972;7.856;2024-03-17T05:10:06;98217.97;;;0.56
24201;BMP280;2801;50.972;7.856;2024-03-17T05:12:32;98217.75;;;0.57
24201;BMP280;2801;50.972;7.856;2024-03-17T05:14:58;98210.94;;;0.61
24201;BMP280;2801;50.972;7.856;2024-03-17T05:17:24;98214.28;;;0.57
24201;BMP280;2801;50.972;7.856;2024-03-17T05:19:50;98218.03;;;0.61
24201;BMP280;2801;50.972;7.856;2024-03-17T05:22:16;98217.00;;;0.62
24201;BMP280;2801;50.972;7.856;2024-03-17T05:24:42;98206.19;;;0.63
24201;BMP280;2801;50.972;7.856;2024-03-17T05:27:08;98210.19;;;0.66
24201;BMP280;2801;50.972;7.856;2024-03-17T05:29:34;98211.00;;;0.66
24201;BMP280;2801;50.972;7.856;2024-03-17T05:32:04;98202.84;;;0.68
24201;BMP280;2801;50.972;7.856;2024-03-17T05:34:30;98201.09;;;0.73
24201;BMP280;2801;50.972;7.856;2024-03-17T05:36:57;98196.28;;;0.70
24201;BMP280;2801;50.972;7.856;2024-03-17T05:39:22;98194.63;;;0.64
24201;BMP280;2801;50.972;7.856;2024-03-17T05:41:48;98208.44;;;0.71
24201;BMP280;2801;50.972;7.856;2024-03-17T05:44:15;98201.50;;;0.65
24201;BMP280;2801;50.972;7.856;2024-03-17T05:46:41;98201.31;;;0.72
24201;BMP280;2801;50.972;7.856;2024-03-17T05:49:08;98206.31;;;0.68
24201;BMP280;2801;50.972;7.856;2024-03-17T05:51:34;98201.25;;;0.67
24201;BMP280;2801;50.972;7.856;2024-03-17T05:54:00;98206.59;;;0.72
24201;BMP280;2801;50.972;7.856;2024-03-17T05:56:26;98207.66;;;0.71
24201;BMP280;2801;50.972;7.856;2024-03-17T05:58:51;98201.63;;;0.75
24201;BMP280;2801;50.972;7.856;2024-03-17T06:01:17;98208.53;;;0.76
24201;BMP280;2801;50.972;7.856;2024-03-17T06:03:45;98213.88;;;0.81
24201;BMP280;2801;50.972;7.856;2024-03-17T06:06:11;98213.94;;;0.86
24201;BMP280;2801;50.972;7.856;2024-03-17T06:08:38;98218.50;;;0.91
24201;BMP280;2801;50.972;7.856;2024-03-17T06:11:07;98216.72;;;0.96
24201;BMP280;2801;50.972;7.856;2024-03-17T06:13:34;98195.59;;;0.96
24201;BMP280;2801;50.972;7.856;2024-03-17T06:16:03;98205.25;;;1.07
24201;BMP280;2801;50.972;7.856;2024-03-17T06:18:30;98197.38;;;1.12
24201;BMP280;2801;50.972;7.856;2024-03-17T06:20:57;98199.53;;;1.15
24201;BMP280;2801;50.972;7.856;2024-03-17T06:23:24;98191.00;;;1.30
24201;BMP280;2801;50.972;7.856;2024-03-17T06:25:52;98181.59;;;1.60
24201;BMP280;2801;50.972;7.856;2024-03-17T06:28:20;98186.19;;;1.96
24201;BMP280;2801;50.972;7.856;2024-03-17T06:30:55;98179.78;;;2.50
24201;BMP280;2801;50.972;7.856;2024-03-17T06:33:22;98165.03;;;3.11
24201;BMP280;2801;50.972;7.856;2024-03-17T06:35:48;98166.31;;;3.70
24201;BMP280;2801;50.972;7.856;2024-03-17T06:38:15;98168.25;;;4.35
24201;BMP280;2801;50.972;7.856;2024-03-17T06:40:42;98165.00;;;4.88
24201;BMP280;2801;50.972;7.856;2024-03-17T06:43:07;98162.97;;;5.33
24201;BMP280;2801;50.972;7.856;2024-03-17T06:45:34;98165.22;;;5.70
24201;BMP280;2801;50.972;7.856;2024-03-17T06:48:00;98154.88;;;6.12
24201;BMP280;2801;50.972;7.856;2024-03-17T06:50:26;98152.81;;;6.66
24201;BMP280;2801;50.972;7.856;2024-03-17T06:52:52;98149.03;;;6.95
24201;BMP280;2801;50.972;7.856;2024-03-17T06:55:19;98146.56;;;7.27
24201;BMP280;2801;50.972;7.856;2024-03-17T06:57:47;98145.63;;;7.60
24201;BMP280;2801;50.972;7.856;2024-03-17T07:00:14;98148.66;;;7.91
24201;BMP280;2801;50.972;7.856;2024-03-17T07:02:43;98142.88;;;8.21
24201;BMP280;2801;50.972;7.856;2024-03-17T07:05:15;98145.47;;;8.58
24201;BMP280;2801;50.972;7.856;2024-03-17T07:07:45;98139.28;;;8.76
24201;BMP280;2801;50.972;7.856;2024-03-17T07:10:12;98148.91;;;8.91
24201;BMP280;2801;50.972;7.856;2024-03-17T07:12:39;98143.00;;;9.21
24201;BMP280;2801;50.972;7.856;2024-03-17T07:15:06;98128.25;;;9.72
24201;BMP280;2801;50.972;7.856;2024-03-17T07:17:33;98126.47;;;9.81
24201;BMP280;2801;50.972;7.856;2024-03-17T07:19:59;98126.19;;;10.05
24201;BMP280;2801;50.972;7.856;2024-03-17T07:22:26;98127.25;;;10.17
24201;BMP280;2801;50.972;7.856;2024-03-17T07:24:52;98124.81;;;10.07
24201;BMP280;2801;50.972;7.856;2024-03-17T07:27:27;98129.78;;;10.00
24201;BMP280;2801;50.972;7.856;2024-03-17T07:29:53;98130.44;;;10.19
24201;BMP280;2801;50.972;7.856;2024-03-17T07:32:22;98128.06;;;10.40
24201;BMP280;2801;50.972;7.856;2024-03-17T07:34:51;98116.47;;;10.31
24201;BMP280;2801;50.972;7.856;2024-03-17T07:37:17;98120.53;;;10.72
24201;BMP280;2801;50.972;7.856;2024-03-17T07:39:44;98116.03;;;10.90
24201;BMP280;2801;50.972;7.856;2024-03-17T07:42:10;98108.91;;;11.24
24201;BMP280;2801;50.972;7.856;2024-03-17T07:44:35;98108.31;;;11.27
24201;BMP280;2801;50.972;7.856;2024-03-17T07:47:02;98105.72;;;11.70
24201;BMP280;2801;50.972;7.856;2024-03-17T07:49:30;98105.75;;;12.13
24201;BMP280;2801;50.972;7.856;2024-03-17T07:51:57;98099.53;;;12.46
24201;BMP280;2801;50.972;7.856;2024-03-17T07:54:24;98098.75;;;12.37
24201;BMP280;2801;50.972;7.856;2024-03-17T07:56:50;98102.88;;;12.26
24201;BMP280;2801;50.972;7.856;2024-03-17T07:59:17;98104.97;;;12.12
24201;BMP280;2801;50.972;7.856;2024-03-17T08:01:44;98108.44;;;11.87
24201;BMP280;2801;50.972;7.856;2024-03-17T08:04:11;98109.16;;;11.54
24201;BMP280;2801;50.972;7.856;2024-03-17T08:06:40;98112.19;;;11.13
24201;BMP280;2801;50.972;7.856;2024-03-17T08:09:08;98112.19;;;10.74
24201;BMP280;2801;50.972;7.856;2024-03-17T08:11:35;98117.81;;;10.42
24201;BMP280;2801;50.972;7.856;2024-03-17T08:14:02;98114.47;;;10.36
24201;BMP280;2801;50.972;7.856;2024-03-17T08:16:28;98109.16;;;10.45
24201;BMP280;2801;50.972;7.856;2024-03-17T08:18:56;98108.56;;;10.48
24201;BMP280;2801;50.972;7.856;2024-03-17T08:21:22;98108.03;;;10.37
24201;BMP280;2801;50.972;7.856;2024-03-17T08:23:48;98104.09;;;10.43
24201;BMP280;2801;50.972;7.856;2024-03-17T08:26:15;98109.28;;;10.62
24201;BMP280;2801;50.972;7.856;2024-03-17T08:28:41;98102.19;;;10.66
24201;BMP280;2801;50.972;7.856;2024-03-17T08:31:07;98111.78;;;10.89
24201;BMP280;2801;50.972;7.856;2024-03-17T08:33:33;98099.56;;;11.13
24201;BMP280;2801;50.972;7.856;2024-03-17T08:36:04;98102.03;;;11.49
24201;BMP280;2801;50.972;7.856;2024-03-17T08:38:32;98101.00;;;11.84
24201;BMP280;2801;50.972;7.856;2024-03-17T08:41:07;98097.22;;;12.11
24201;BMP280;2801;50.972;7.856;2024-03-17T08:43:34;98088.03;;;12.20
24201;BMP280;2801;50.972;7.856;2024-03-17T08:46:07;98100.69;;;12.20
24201;BMP280;2801;50.972;7.856;2024-03-17T08:48:37;98108.13;;;12.23
24201;BMP280;2801;50.972;7.856;2024-03-17T08:51:05;98104.13;;;12.29
24201;BMP280;2801;50.972;7.856;2024-03-17T08:53:32;98111.75;;;12.27
24201;BMP280;2801;50.972;7.856;2024-03-17T08:55:59;98110.75;;;12.48
24201;BMP280;2801;50.972;7.856;2024-03-17T08:58:26;98109.63;;;12.66
24201;BMP280;2801;50.972;7.856;2024-03-17T09:00:53;98119.50;;;13.00
24201;BMP280;2801;50.972;7.856;2024-03-17T09:03:19;98115.72;;;13.01
24201;BMP280;2801;50.972;7.856;2024-03-17T09:05:48;98108.00;;;12.74
24201;BMP280;2801;50.972;7.856;2024-03-17T09:08:23;98100.19;;;12.43
24201;BMP280;2801;50.972;7.856;2024-03-17T09:10:51;98096.72;;;12.26
24201;BMP280;2801;50.972;7.856;2024-03-17T09:13:25;98095.31;;;12.20
24201;BMP280;2801;50.972;7.856;2024-03-17T09:16:01;98094.63;;;12.48
24201;BMP280;2801;50.972;7.856;2024-03-17T09:18:31;98094.19;;;12.92
24201;BMP280;2801;50.972;7.856;2024-03-17T09:21:03;98083.13;;;13.52
24201;BMP280;2801;50.972;7.856;2024-03-17T09:23:31;98082.56;;;14.28
24201;BMP280;2801;50.972;7.856;2024-03-17T09:26:02;98083.47;;;14.65
24201;BMP280;2801;50.972;7.856;2024-03-17T09:28:30;98078.31;;;14.72
24201;BMP280;2801;50.972;7.856;2024-03-17T09:30:57;98076.91;;;14.99
24201;BMP280;2801;50.972;7.856;2024-03-17T09:33:27;98073.88;;;15.48
24201;BMP280;2801;50.972;7.856;2024-03-17T09:36:01;98065.53;;;15.93
24201;BMP280;2801;50.972;7.856;2024-03-17T09:38:28;98055.81;;;16.16
24201;BMP280;2801;50.972;7.856;2024-03-17T09:40:55;98049.50;;;16.12
24201;BMP280;2801;50.972;7.856;2024-03-17T09:43:24;98062.97;;;16.24
24201;BMP280;2801;50.972;7.856;2024-03-17T09:45:51;98043.69;;;16.25
24201;BMP280;2801;50.972;7.856;2024-03-17T09:48:25;98048.44;;;15.89
24201;BMP280;2801;50.972;7.856;2024-03-17T09:50:54;98054.50;;;15.22
24201;BMP280;2801;50.972;7.856;2024-03-17T09:53:30;98061.84;;;14.53
24201;BMP280;2801;50.972;7.856;2024-03-17T09:56:08;98060.22;;;14.40
24201;BMP280;2801;50.972;7.856;2024-03-17T09:58:34;98054.03;;;14.27
24201;BMP280;2801;50.972;7.856;2024-03-17T10:01:01;98052.06;;;14.60
24201;BMP280;2801;50.972;7.856;2024-03-17T10:03:50;98056.09;;;14.42
24201;BMP280;2801;50.972;7.856;2024-03-17T10:06:26;98050.56;;;14.39
24201;BMP280;2801;50.972;7.856;2024-03-17T10:08:56;98061.25;;;14.35
24201;BMP280;2801;50.972;7.856;2024-03-17T10:11:25;98051.66;;;14.26
24201;BMP280;2801;50.972;7.856;2024-03-17T10:14:03;98049.94;;;14.01
24201;BMP280;2801;50.972;7.856;2024-03-17T10:16:38;98056.53;;;13.91
24201;BMP280;2801;50.972;7.856;2024-03-17T10:19:16;98057.13;;;13.97
24201;BMP280;2801;50.972;7.856;2024-03-17T10:21:47;98061.22;;;14.23
24201;BMP280;2801;50.972;7.856;2024-03-17T10:24:23;98070.50;;;14.46
24201;BMP280;2801;50.972;7.856;2024-03-17T10:26:58;98069.97;;;14.65
24201;BMP280;2801;50.972;7.856;2024-03-17T10:29:35;98071.88;;;14.64
24201;BMP280;2801;50.972;7.856;2024-03-17T10:32:15;98068.94;;;14.25
24201;BMP280;2801;50.972;7.856;2024-03-17T10:34:45;98066.59;;;14.23
24201;BMP280;2801;50.972;7.856;2024-03-17T10:37:15;98064.94;;;14.31
24201;BMP280;2801;50.972;7.856;2024-03-17T10:39:43;98074.34;;;14.57
24201;BMP280;2801;50.972;7.856;2024-03-17T10:42:12;98072.19;;;14.51
24201;BMP280;2801;50.972;7.856;2024-03-17T10:44:41;98069.16;;;14.52
24201;BMP280;2801;50.972;7.856;2024-03-17T10:47:25;98052.25;;;15.00
24201;BMP280;2801;50.972;7.856;2024-03-17T10:49:53;98044.63;;;15.38
24201;BMP280;2801;50.972;7.856;2024-03-17T10:52:22;98041.00;;;15.98
24201;BMP280;2801;50.972;7.856;2024-03-17T10:54:51;98037.41;;;16.21
24201;BMP280;2801;50.972;7.856;2024-03-17T11:00:08;98040.84;;;16.06
24201;BMP280;2801;50.972;7.856;2024-03-17T11:02:36;98041.72;;;15.83
24201;BMP280;2801;50.972;7.856;2024-03-17T11:05:26;98043.00;;;15.61
24201;BMP280;2801;50.972;7.856;2024-03-17T11:07:58;98045.72;;;15.49
24201;BMP280;2801;50.972;7.856;2024-03-17T11:10:33;98053.50;;;15.39
24201;BMP280;2801;50.972;7.856;2024-03-17T11:13:01;98059.56;;;15.24
24201;BMP280;2801;50.972;7.856;2024-03-17T11:20:39;98045.69;;;14.77
24201;BMP280;2801;50.972;7.856;2024-03-17T11:23:06;98054.00;;;14.60
24201;BMP280;2801;50.972;7.856;2024-03-17T11:28:09;98058.63;;;14.27
24201;BMP280;2801;50.972;7.856;2024-03-17T11:39:05;98062.19;;;13.98
24201;BMP280;2801;50.972;7.856;2024-03-17T11:41:39;98053.25;;;14.06
24201;BMP280;2801;50.972;7.856;2024-03-17T11:47:01;98054.63;;;14.12
24201;BMP280;2801;50.972;7.856;2024-03-17T11:49:36;98050.00;;;14.13
24201;BMP280;2801;50.972;7.856;2024-03-17T11:52:12;98049.81;;;14.18
24201;BMP280;2801;50.972;7.856;2024-03-17T11:54:41;98048.34;;;14.20
24201;BMP280;2801;50.972;7.856;2024-03-17T11:57:10;98053.34;;;14.30
24201;BMP280;2801;50.972;7.856;2024-03-17T11:59:38;98046.75;;;14.40
24201;BMP280;2801;50.972;7.856;2024-03-17T12:02:29;98054.97;;;14.43
24201;BMP280;2801;50.972;7.856;2024-03-17T12:04:59;98041.03;;;14.41
24201;BMP280;2801;50.972;7.856;2024-03-17T12:07:26;98058.66;;;14.39
24201;BMP280;2801;50.972;7.856;2024-03-17T12:09:54;98060.81;;;14.45
24201;BMP280;2801;50.972;7.856;2024-03-17T12:12:23;98057.13;;;14.50
24201;BMP280;2801;50.972;7.856;2024-03-17T12:14:51;98052.72;;;14.45
24201;BMP280;2801;50.972;7.856;2024-03-17T12:17:23;98047.13;;;14.50
24201;BMP280;2801;50.972;7.856;2024-03-17T12:19:50;98044.34;;;14.59
24201;BMP280;2801;50.972;7.856;2024-03-17T12:22:22;98034.56;;;14.66
24201;BMP280;2801;50.972;7.856;2024-03-17T12:24:50;98037.59;;;14.77
24201;BMP280;2801;50.972;7.856;2024-03-17T12:27:19;98031.53;;;14.92
24201;BMP280;2801;50.972;7.856;2024-03-17T12:29:47;98023.81;;;15.03
24201;BMP280;2801;50.972;7.856;2024-03-17T12:32:19;98031.53;;;15.28
24201;BMP280;2801;50.972;7.856;2024-03-17T12:34:53;98020.16;;;15.35
24201;BMP280;2801;50.972;7.856;2024-03-17T12:37:27;98015.69;;;15.39
24201;BMP280;2801;50.972;7.856;2024-03-17T12:40:03;98011.28;;;15.46
24201;BMP280;2801;50.972;7.856;2024-03-17T12:42:30;97994.63;;;15.32
24201;BMP280;2801;50.972;7.856;2024-03-17T12:44:59;98000.03;;;15.44
24201;BMP280;2801;50.972;7.856;2024-03-17T12:47:28;97999.34;;;15.47
24201;BMP280;2801;50.972;7.856;2024-03-17T12:49:57;97994.25;;;15.58
24201;BMP280;2801;50.972;7.856;2024-03-17T12:52:29;97991.13;;;15.56
24201;BMP280;2801;50.972;7.856;2024-03-17T12:58:13;97984.72;;;15.36
24201;BMP280;2801;50.972;7.856;2024-03-17T13:01:03;97983.03;;;15.20
24201;BMP280;2801;50.972;7.856;2024-03-17T13:03:37;97975.59;;;15.17
24201;BMP280;2801;50.972;7.856;2024-03-17T13:06:08;97975.59;;;15.17
24201;BMP280;2801;50.972;7.856;2024-03-17T13:08:36;97964.09;;;15.32
24201;BMP280;2801;50.972;7.856;2024-03-17T13:11:02;97967.25;;;15.46
24201;BMP280;2801;50.972;7.856;2024-03-17T13:13:31;97952.22;;;15.60
24201;BMP280;2801;50.972;7.856;2024-03-17T13:15:57;97952.94;;;15.57
24201;BMP280;2801;50.972;7.856;2024-03-17T13:18:24;97942.13;;;15.57
24201;BMP280;2801;50.972;7.856;2024-03-17T13:20:50;97944.13;;;15.60
24201;BMP280;2801;50.972;7.856;2024-03-17T13:23:18;97934.34;;;15.56
24201;BMP280;2801;50.972;7.856;2024-03-17T13:25:45;97929.34;;;15.42
24201;BMP280;2801;50.972;7.856;2024-03-17T13:28:11;97932.47;;;15.32
24201;BMP280;2801;50.972;7.856;2024-03-17T13:30:37;97916.66;;;15.19
24201;BMP280;2801;50.972;7.856;2024-03-17T13:33:04;97920.94;;;15.08
24201;BMP280;2801;50.972;7.856;2024-03-17T13:35:36;97919.28;;;14.91
24201;BMP280;2801;50.972;7.856;2024-03-17T13:38:09;97914.91;;;14.99
24201;BMP280;2801;50.972;7.856;2024-03-17T13:40:39;97914.41;;;15.09
24201;BMP280;2801;50.972;7.856;2024-03-17T13:43:06;97908.97;;;15.21
24201;BMP280;2801;50.972;7.856;2024-03-17T13:45:40;97901.47;;;15.14
24201;BMP280;2801;50.972;7.856;2024-03-17T13:48:08;97904.13;;;15.26
24201;BMP280;2801;50.972;7.856;2024-03-17T13:50:37;97899.53;;;15.27
24201;BMP280;2801;50.972;7.856;2024-03-17T13:53:10;97897.75;;;15.19
24201;BMP280;2801;50.972;7.856;2024-03-17T13:55:36;97884.59;;;15.17
24201;BMP280;2801;50.972;7.856;2024-03-17T13:58:04;97890.13;;;15.09
24201;BMP280;2801;50.972;7.856;2024-03-17T14:00:31;97891.00;;;15.13
24201;BMP280;2801;50.972;7.856;2024-03-17T14:03:00;97886.47;;;15.17
24201;BMP280;2801;50.972;7.856;2024-03-17T14:05:26;97888.88;;;15.06
24201;BMP280;2801;50.972;7.856;2024-03-17T14:07:54;97890.47;;;14.95
24201;BMP280;2801;50.972;7.856;2024-03-17T14:10:23;97893.19;;;14.95
24201;BMP280;2801;50.972;7.856;2024-03-17T14:12:49;97895.22;;;14.98
24201;BMP280;2801;50.972;7.856;2024-03-17T14:15:16;97879.25;;;14.93
24201;BMP280;2801;50.972;7.856;2024-03-17T14:17:45;97887.56;;;14.88
24201;BMP280;2801;50.972;7.856;2024-03-17T14:20:13;97880.69;;;15.03
24201;BMP280;2801;50.972;7.856;2024-03-17T14:22:41;97884.16;;;15.03
24201;BMP280;2801;50.972;7.856;2024-03-17T14:25:17;97871.13;;;15.05
24201;BMP280;2801;50.972;7.856;2024-03-17T14:27:44;97868.84;;;15.07
24201;BMP280;2801;50.972;7.856;2024-03-17T14:30:16;97874.25;;;15.07
24201;BMP280;2801;50.972;7.856;2024-03-17T14:32:43;97866.31;;;14.99
24201;BMP280;2801;50.972;7.856;2024-03-17T14:35:17;97864.72;;;14.98
24201;BMP280;2801;50.972;7.856;2024-03-17T14:37:44;97862.84;;;14.86
24201;BMP280;2801;50.972;7.856;2024-03-17T14:40:15;97863.19;;;14.73
24201;BMP280;2801;50.972;7.856;2024-03-17T14:42:52;97858.22;;;14.74
24201;BMP280;2801;50.972;7.856;2024-03-17T14:45:19;97857.91;;;14.76
24201;BMP280;2801;50.972;7.856;2024-03-17T14:47:46;97855.88;;;14.73
24201;BMP280;2801;50.972;7.856;2024-03-17T14:50:12;97856.22;;;14.71
24201;BMP280;2801;50.972;7.856;2024-03-17T14:52:40;97861.94;;;14.70
24201;BMP280;2801;50.972;7.856;2024-03-17T14:55:09;97859.47;;;14.65
24201;BMP280;2801;50.972;7.856;2024-03-17T14:57:40;97852.53;;;14.52
24201;BMP280;2801;50.972;7.856;2024-03-17T15:00:11;97848.25;;;14.39